<?xml version="1.0" encoding="UTF-8" standalone="no" ?><gpx xmlns="http://www.topografix.com/GPX/1/1" xmlns:gpxx="http://www.garmin.com/xmlschemas/GpxExtensions/v3" xmlns:wptx1="http://www.garmin.com/xmlschemas/WaypointExtension/v1" xmlns:gpxtpx="http://www.garmin.com/xmlschemas/TrackPointExtension/v1" creator="GuideVTT.com" version="1.1" xmlns:xsi="http://www.w3.org/2001/XMLSchema-instance" xsi:schemaLocation="http://www.topografix.com/GPX/1/1 http://www.topografix.com/GPX/1/1/gpx.xsd http://www.garmin.com/xmlschemas/GpxExtensions/v3 http://www8.garmin.com/xmlschemas/GpxExtensionsv3.xsd http://www.garmin.com/xmlschemas/WaypointExtension/v1 http://www8.garmin.com/xmlschemas/WaypointExtensionv1.xsd http://www.garmin.com/xmlschemas/TrackPointExtension/v1 http://www.garmin.com/xmlschemas/TrackPointExtensionv1.xsd">
<metadata><link href="http://www.garmin.com"><text>Garmin International</text></link><time>2013-06-22T15:13:50Z</time></metadata>
<trk><name>rp_2014_16corrige.gpx</name><extensions><gpxx:TrackExtension><gpxx:DisplayColor>Cyan</gpxx:DisplayColor></gpxx:TrackExtension></extensions><trkseg>
<trkpt lat="46.4637739118" lon="6.9452278689"><ele>1271</ele><time>2014-06-16T12:20:38Z</time></trkpt>
<trkpt lat="46.4637377020" lon="6.9452103507"><ele>1274.36</ele><time>2014-06-16T12:20:58Z</time></trkpt>
<trkpt lat="46.4637384564" lon="6.9451895636"><ele>1275.33</ele><time>2014-06-16T12:21:29Z</time></trkpt>
<trkpt lat="46.4637343492" lon="6.9451748114"><ele>1276.77</ele><time>2014-06-16T12:21:53Z</time></trkpt>
<trkpt lat="46.4637353551" lon="6.9451784994"><ele>1276.77</ele><time>2014-06-16T12:21:57Z</time></trkpt>
<trkpt lat="46.4637016598" lon="6.9452423695"><ele>1277.25</ele><time>2014-06-16T12:22:04Z</time></trkpt>
<trkpt lat="46.4636238758" lon="6.9452556968"><ele>1277.73</ele><time>2014-06-16T12:22:09Z</time></trkpt>
<trkpt lat="46.4635100495" lon="6.9454409368"><ele>1280.13</ele><time>2014-06-16T12:22:20Z</time></trkpt>
<trkpt lat="46.4634574112" lon="6.9455902185"><ele>1281.57</ele><time>2014-06-16T12:22:29Z</time></trkpt>
<trkpt lat="46.4633146673" lon="6.9456574414"><ele>1284.94</ele><time>2014-06-16T12:22:41Z</time></trkpt>
<trkpt lat="46.4631428383" lon="6.9457625505"><ele>1285.42</ele><time>2014-06-16T12:22:57Z</time></trkpt>
<trkpt lat="46.4630122483" lon="6.9458851777"><ele>1287.34</ele><time>2014-06-16T12:23:09Z</time></trkpt>
<trkpt lat="46.4629517309" lon="6.9461177755"><ele>1291.67</ele><time>2014-06-16T12:23:24Z</time></trkpt>
<trkpt lat="46.4629492164" lon="6.9461977389"><ele>1292.63</ele><time>2014-06-16T12:23:29Z</time></trkpt>
<trkpt lat="46.4629584365" lon="6.9462777860"><ele>1294.07</ele><time>2014-06-16T12:23:34Z</time></trkpt>
<trkpt lat="46.4629513118" lon="6.9463424943"><ele>1295.03</ele><time>2014-06-16T12:23:38Z</time></trkpt>
<trkpt lat="46.4629946463" lon="6.9464362878"><ele>1295.99</ele><time>2014-06-16T12:23:45Z</time></trkpt>
<trkpt lat="46.4630420879" lon="6.9465825520"><ele>1299.84</ele><time>2014-06-16T12:23:56Z</time></trkpt>
<trkpt lat="46.4630853385" lon="6.9467125554"><ele>1304.65</ele><time>2014-06-16T12:24:05Z</time></trkpt>
<trkpt lat="46.4630694967" lon="6.9468262140"><ele>1304.65</ele><time>2014-06-16T12:24:14Z</time></trkpt>
<trkpt lat="46.4629440196" lon="6.9468139764"><ele>1303.69</ele><time>2014-06-16T12:24:26Z</time></trkpt>
<trkpt lat="46.4628379885" lon="6.9467641041"><ele>1304.65</ele><time>2014-06-16T12:24:38Z</time></trkpt>
<trkpt lat="46.4627950732" lon="6.9467256311"><ele>1305.13</ele><time>2014-06-16T12:24:42Z</time></trkpt>
<trkpt lat="46.4627063088" lon="6.9466884155"><ele>1304.65</ele><time>2014-06-16T12:24:51Z</time></trkpt>
<trkpt lat="46.4626757987" lon="6.9466759264"><ele>1305.13</ele><time>2014-06-16T12:24:54Z</time></trkpt>
<trkpt lat="46.4626041334" lon="6.9466331787"><ele>1305.61</ele><time>2014-06-16T12:25:01Z</time></trkpt>
<trkpt lat="46.4624398481" lon="6.9465084560"><ele>1307.53</ele><time>2014-06-16T12:25:15Z</time></trkpt>
<trkpt lat="46.4623335656" lon="6.9463813026"><ele>1309.93</ele><time>2014-06-16T12:25:26Z</time></trkpt>
<trkpt lat="46.4622215834" lon="6.9462295063"><ele>1313.3</ele><time>2014-06-16T12:25:37Z</time></trkpt>
<trkpt lat="46.4621719625" lon="6.9461825676"><ele>1314.26</ele><time>2014-06-16T12:25:42Z</time></trkpt>
<trkpt lat="46.4620179869" lon="6.9461539853"><ele>1320.51</ele><time>2014-06-16T12:25:54Z</time></trkpt>
<trkpt lat="46.4618574735" lon="6.9461985771"><ele>1323.87</ele><time>2014-06-16T12:26:07Z</time></trkpt>
<trkpt lat="46.4617699664" lon="6.9462313503"><ele>1325.8</ele><time>2014-06-16T12:26:17Z</time></trkpt>
<trkpt lat="46.4616726525" lon="6.9462178554"><ele>1329.16</ele><time>2014-06-16T12:26:27Z</time></trkpt>
<trkpt lat="46.4616570622" lon="6.9462187774"><ele>1329.16</ele><time>2014-06-16T12:26:28Z</time></trkpt>
<trkpt lat="46.4615198504" lon="6.9462259859"><ele>1331.56</ele><time>2014-06-16T12:26:39Z</time></trkpt>
<trkpt lat="46.4615087863" lon="6.9462241419"><ele>1331.56</ele><time>2014-06-16T12:26:40Z</time></trkpt>
<trkpt lat="46.4613069501" lon="6.9461940508"><ele>1335.41</ele><time>2014-06-16T12:26:56Z</time></trkpt>
<trkpt lat="46.4611481968" lon="6.9461963978"><ele>1337.81</ele><time>2014-06-16T12:27:09Z</time></trkpt>
<trkpt lat="46.4610886015" lon="6.9462285005"><ele>1338.29</ele><time>2014-06-16T12:27:14Z</time></trkpt>
<trkpt lat="46.4610153437" lon="6.9464154169"><ele>1335.89</ele><time>2014-06-16T12:27:27Z</time></trkpt>
<trkpt lat="46.4609886892" lon="6.9465167541"><ele>1334.93</ele><time>2014-06-16T12:27:33Z</time></trkpt>
<trkpt lat="46.4609152637" lon="6.9466526248"><ele>1334.45</ele><time>2014-06-16T12:27:44Z</time></trkpt>
<trkpt lat="46.4608860109" lon="6.9467308279"><ele>1333.97</ele><time>2014-06-16T12:27:48Z</time></trkpt>
<trkpt lat="46.4607958216" lon="6.9469594024"><ele>1331.56</ele><time>2014-06-16T12:28:00Z</time></trkpt>
<trkpt lat="46.4607740287" lon="6.9471749850"><ele>1327.72</ele><time>2014-06-16T12:28:11Z</time></trkpt>
<trkpt lat="46.4607671555" lon="6.9472209178"><ele>1327.72</ele><time>2014-06-16T12:28:14Z</time></trkpt>
<trkpt lat="46.4607542474" lon="6.9472459797"><ele>1327.72</ele><time>2014-06-16T12:28:16Z</time></trkpt>
<trkpt lat="46.4607469551" lon="6.9472760707"><ele>1327.24</ele><time>2014-06-16T12:28:18Z</time></trkpt>
<trkpt lat="46.4607294369" lon="6.9473438803"><ele>1326.28</ele><time>2014-06-16T12:28:22Z</time></trkpt>
<trkpt lat="46.4606154431" lon="6.9476229977"><ele>1329.64</ele><time>2014-06-16T12:28:38Z</time></trkpt>
<trkpt lat="46.4604863618" lon="6.9478718564"><ele>1340.22</ele><time>2014-06-16T12:28:53Z</time></trkpt>
<trkpt lat="46.4604022074" lon="6.9480384048"><ele>1343.58</ele><time>2014-06-16T12:29:02Z</time></trkpt>
<trkpt lat="46.4603456296" lon="6.9482409954"><ele>1345.98</ele><time>2014-06-16T12:29:13Z</time></trkpt>
<trkpt lat="46.4603335597" lon="6.9482853357"><ele>1345.98</ele><time>2014-06-16T12:29:15Z</time></trkpt>
<trkpt lat="46.4603152871" lon="6.9483943004"><ele>1346.46</ele><time>2014-06-16T12:29:20Z</time></trkpt>
<trkpt lat="46.4602710307" lon="6.9486382976"><ele>1351.75</ele><time>2014-06-16T12:29:33Z</time></trkpt>
<trkpt lat="46.4602433704" lon="6.9487061910"><ele>1353.67</ele><time>2014-06-16T12:29:37Z</time></trkpt>
<trkpt lat="46.4602113515" lon="6.9487636909"><ele>1355.12</ele><time>2014-06-16T12:29:41Z</time></trkpt>
<trkpt lat="46.4601703640" lon="6.9489139784"><ele>1360.4</ele><time>2014-06-16T12:29:49Z</time></trkpt>
<trkpt lat="46.4600550290" lon="6.9490867294"><ele>1363.77</ele><time>2014-06-16T12:30:01Z</time></trkpt>
<trkpt lat="46.4599665999" lon="6.9492753223"><ele>1366.17</ele><time>2014-06-16T12:30:12Z</time></trkpt>
<trkpt lat="46.4599552006" lon="6.9492941815"><ele>1366.65</ele><time>2014-06-16T12:30:13Z</time></trkpt>
<trkpt lat="46.4598307293" lon="6.9494398590"><ele>1371.46</ele><time>2014-06-16T12:30:22Z</time></trkpt>
<trkpt lat="46.4598032366" lon="6.9495101832"><ele>1372.9</ele><time>2014-06-16T12:30:26Z</time></trkpt>
<trkpt lat="46.4597738162" lon="6.9497412723"><ele>1381.07</ele><time>2014-06-16T12:30:38Z</time></trkpt>
<trkpt lat="46.4598944318" lon="6.9500099961"><ele>1383.96</ele><time>2014-06-16T12:30:51Z</time></trkpt>
<trkpt lat="46.4599976968" lon="6.9503103197"><ele>1386.36</ele><time>2014-06-16T12:31:05Z</time></trkpt>
<trkpt lat="46.4601139538" lon="6.9505682308"><ele>1389.24</ele><time>2014-06-16T12:31:16Z</time></trkpt>
<trkpt lat="46.4601990301" lon="6.9507617690"><ele>1390.2</ele><time>2014-06-16T12:31:24Z</time></trkpt>
<trkpt lat="46.4602746349" lon="6.9509465899"><ele>1391.17</ele><time>2014-06-16T12:31:31Z</time></trkpt>
<trkpt lat="46.4603273571" lon="6.9510864001"><ele>1392.13</ele><time>2014-06-16T12:31:36Z</time></trkpt>
<trkpt lat="46.4605331328" lon="6.9515784178"><ele>1394.05</ele><time>2014-06-16T12:31:52Z</time></trkpt>
<trkpt lat="46.4607180376" lon="6.9519892149"><ele>1395.97</ele><time>2014-06-16T12:32:05Z</time></trkpt>
<trkpt lat="46.4609249867" lon="6.9524593558"><ele>1398.86</ele><time>2014-06-16T12:32:19Z</time></trkpt>
<trkpt lat="46.4611398987" lon="6.9529154152"><ele>1401.74</ele><time>2014-06-16T12:32:33Z</time></trkpt>
<trkpt lat="46.4613069501" lon="6.9533122145"><ele>1403.66</ele><time>2014-06-16T12:32:45Z</time></trkpt>
<trkpt lat="46.4615289867" lon="6.9538709521"><ele>1406.07</ele><time>2014-06-16T12:33:01Z</time></trkpt>
<trkpt lat="46.4617185015" lon="6.9542804919"><ele>1408.47</ele><time>2014-06-16T12:33:13Z</time></trkpt>
<trkpt lat="46.4619870577" lon="6.9546980783"><ele>1410.39</ele><time>2014-06-16T12:33:28Z</time></trkpt>
<trkpt lat="46.4622763172" lon="6.9550355338"><ele>1411.35</ele><time>2014-06-16T12:33:42Z</time></trkpt>
<trkpt lat="46.4625951648" lon="6.9554406311"><ele>1413.28</ele><time>2014-06-16T12:33:57Z</time></trkpt>
<trkpt lat="46.4629424270" lon="6.9559474010"><ele>1415.68</ele><time>2014-06-16T12:34:15Z</time></trkpt>
<trkpt lat="46.4632616099" lon="6.9563620538"><ele>1418.56</ele><time>2014-06-16T12:34:31Z</time></trkpt>
<trkpt lat="46.4634199440" lon="6.9567595236"><ele>1422.89</ele><time>2014-06-16T12:34:44Z</time></trkpt>
<trkpt lat="46.4632766973" lon="6.9571249746"><ele>1425.77</ele><time>2014-06-16T12:34:56Z</time></trkpt>
<trkpt lat="46.4631808084" lon="6.9575471710"><ele>1428.66</ele><time>2014-06-16T12:35:09Z</time></trkpt>
<trkpt lat="46.4631252363" lon="6.9581322279"><ele>1432.02</ele><time>2014-06-16T12:35:26Z</time></trkpt>
<trkpt lat="46.4630781300" lon="6.9586404227"><ele>1432.98</ele><time>2014-06-16T12:35:41Z</time></trkpt>
<trkpt lat="46.4632279985" lon="6.9588096533"><ele>1433.94</ele><time>2014-06-16T12:35:50Z</time></trkpt>
<trkpt lat="46.4635063615" lon="6.9587819092"><ele>1435.39</ele><time>2014-06-16T12:36:02Z</time></trkpt>
<trkpt lat="46.4637297392" lon="6.9585010316"><ele>1438.75</ele><time>2014-06-16T12:36:15Z</time></trkpt>
<trkpt lat="46.4637455810" lon="6.9584373292"><ele>1437.79</ele><time>2014-06-16T12:36:21Z</time></trkpt>
<trkpt lat="46.4638382010" lon="6.9584337249"><ele>1438.27</ele><time>2014-06-16T12:52:56Z</time></trkpt>
<trkpt lat="46.4640048333" lon="6.9582081679"><ele>1433.94</ele><time>2014-06-16T12:53:05Z</time></trkpt>
<trkpt lat="46.4643177297" lon="6.9582208246"><ele>1431.06</ele><time>2014-06-16T12:53:14Z</time></trkpt>
<trkpt lat="46.4646203164" lon="6.9583731238"><ele>1425.29</ele><time>2014-06-16T12:53:23Z</time></trkpt>
<trkpt lat="46.4648415986" lon="6.9583747163"><ele>1420.97</ele><time>2014-06-16T12:53:29Z</time></trkpt>
<trkpt lat="46.4650342986" lon="6.9581991993"><ele>1416.16</ele><time>2014-06-16T12:53:36Z</time></trkpt>
<trkpt lat="46.4650921337" lon="6.9582662545"><ele>1415.2</ele><time>2014-06-16T12:53:38Z</time></trkpt>
<trkpt lat="46.4653852489" lon="6.9586278498"><ele>1408.95</ele><time>2014-06-16T12:53:49Z</time></trkpt>
<trkpt lat="46.4656763524" lon="6.9590035267"><ele>1403.18</ele><time>2014-06-16T12:54:00Z</time></trkpt>
<trkpt lat="46.4659330063" lon="6.9593451731"><ele>1396.45</ele><time>2014-06-16T12:54:11Z</time></trkpt>
<trkpt lat="46.4661599044" lon="6.9595046807"><ele>1392.13</ele><time>2014-06-16T12:54:21Z</time></trkpt>
<trkpt lat="46.4661727287" lon="6.9595061895"><ele>1391.65</ele><time>2014-06-16T12:54:34Z</time></trkpt>
<trkpt lat="46.4661679510" lon="6.9595062733"><ele>1390.68</ele><time>2014-06-16T12:55:07Z</time></trkpt>
<trkpt lat="46.4661635924" lon="6.9595005736"><ele>1391.65</ele><time>2014-06-16T12:55:49Z</time></trkpt>
<trkpt lat="46.4661636762" lon="6.9595116377"><ele>1391.65</ele><time>2014-06-16T12:56:11Z</time></trkpt>
<trkpt lat="46.4661702141" lon="6.9595144875"><ele>1392.13</ele><time>2014-06-16T12:56:31Z</time></trkpt>
<trkpt lat="46.4663904067" lon="6.9597278908"><ele>1388.28</ele><time>2014-06-16T12:56:39Z</time></trkpt>
<trkpt lat="46.4666271955" lon="6.9600504264"><ele>1382.99</ele><time>2014-06-16T12:56:48Z</time></trkpt>
<trkpt lat="46.4669459593" lon="6.9604090042"><ele>1376.75</ele><time>2014-06-16T12:56:58Z</time></trkpt>
<trkpt lat="46.4672173653" lon="6.9608832523"><ele>1370.5</ele><time>2014-06-16T12:57:09Z</time></trkpt>
<trkpt lat="46.4674549922" lon="6.9613956381"><ele>1366.65</ele><time>2014-06-16T12:57:20Z</time></trkpt>
<trkpt lat="46.4675847441" lon="6.9617232028"><ele>1363.77</ele><time>2014-06-16T12:57:29Z</time></trkpt>
<trkpt lat="46.4675890189" lon="6.9617600832"><ele>1363.77</ele><time>2014-06-16T12:57:30Z</time></trkpt>
<trkpt lat="46.4678032603" lon="6.9620172400"><ele>1361.36</ele><time>2014-06-16T12:57:37Z</time></trkpt>
<trkpt lat="46.4681177493" lon="6.9622852933"><ele>1357.52</ele><time>2014-06-16T12:57:42Z</time></trkpt>
<trkpt lat="46.4682482556" lon="6.9623872172"><ele>1356.08</ele><time>2014-06-16T12:57:44Z</time></trkpt>
<trkpt lat="46.4683500957" lon="6.9624463934"><ele>1354.63</ele><time>2014-06-16T12:57:46Z</time></trkpt>
<trkpt lat="46.4684386086" lon="6.9625462219"><ele>1352.71</ele><time>2014-06-16T12:57:50Z</time></trkpt>
<trkpt lat="46.4683805220" lon="6.9625259377"><ele>1351.75</ele><time>2014-06-16T12:57:56Z</time></trkpt>
<trkpt lat="46.4681470022" lon="6.9624660071"><ele>1348.87</ele><time>2014-06-16T12:58:01Z</time></trkpt>
<trkpt lat="46.4677804615" lon="6.9624654204"><ele>1345.98</ele><time>2014-06-16T12:58:07Z</time></trkpt>
<trkpt lat="46.4674979914" lon="6.9622961897"><ele>1340.7</ele><time>2014-06-16T12:58:12Z</time></trkpt>
<trkpt lat="46.4672493841" lon="6.9620269630"><ele>1336.37</ele><time>2014-06-16T12:58:16Z</time></trkpt>
<trkpt lat="46.4668730367" lon="6.9617701415"><ele>1331.56</ele><time>2014-06-16T12:58:21Z</time></trkpt>
<trkpt lat="46.4663077611" lon="6.9615705684"><ele>1326.28</ele><time>2014-06-16T12:58:28Z</time></trkpt>
<trkpt lat="46.4656292461" lon="6.9616170879"><ele>1320.99</ele><time>2014-06-16T12:58:35Z</time></trkpt>
<trkpt lat="46.4650456980" lon="6.9616286550"><ele>1316.18</ele><time>2014-06-16T12:58:41Z</time></trkpt>
<trkpt lat="46.4646235853" lon="6.9617103785"><ele>1312.82</ele><time>2014-06-16T12:58:45Z</time></trkpt>
<trkpt lat="46.4641106967" lon="6.9619720615"><ele>1307.53</ele><time>2014-06-16T12:58:51Z</time></trkpt>
<trkpt lat="46.4636737481" lon="6.9622877240"><ele>1300.8</ele><time>2014-06-16T12:58:58Z</time></trkpt>
<trkpt lat="46.4636013284" lon="6.9623458944"><ele>1299.36</ele><time>2014-06-16T12:58:59Z</time></trkpt>
<trkpt lat="46.4632334467" lon="6.9626869541"><ele>1295.51</ele><time>2014-06-16T12:59:04Z</time></trkpt>
<trkpt lat="46.4629037865" lon="6.9628713559"><ele>1295.51</ele><time>2014-06-16T12:59:08Z</time></trkpt>
<trkpt lat="46.4620740619" lon="6.9632322807"><ele>1294.07</ele><time>2014-06-16T12:59:17Z</time></trkpt>
<trkpt lat="46.4617532864" lon="6.9634051155"><ele>1293.59</ele><time>2014-06-16T12:59:21Z</time></trkpt>
<trkpt lat="46.4615107141" lon="6.9636417367"><ele>1293.11</ele><time>2014-06-16T12:59:25Z</time></trkpt>
<trkpt lat="46.4611024316" lon="6.9640156534"><ele>1291.19</ele><time>2014-06-16T12:59:31Z</time></trkpt>
<trkpt lat="46.4606545027" lon="6.9641338382"><ele>1289.27</ele><time>2014-06-16T12:59:37Z</time></trkpt>
<trkpt lat="46.4605817478" lon="6.9641513564"><ele>1288.78</ele><time>2014-06-16T12:59:38Z</time></trkpt>
<trkpt lat="46.4603346493" lon="6.9643378537"><ele>1288.3</ele><time>2014-06-16T12:59:42Z</time></trkpt>
<trkpt lat="46.4600857068" lon="6.9647215772"><ele>1285.42</ele><time>2014-06-16T12:59:50Z</time></trkpt>
<trkpt lat="46.4601016324" lon="6.9648696855"><ele>1283.98</ele><time>2014-06-16T12:59:54Z</time></trkpt>
<trkpt lat="46.4601111878" lon="6.9649940729"><ele>1281.57</ele><time>2014-06-16T13:00:00Z</time></trkpt>
<trkpt lat="46.4601375908" lon="6.9650862738"><ele>1279.65</ele><time>2014-06-16T13:00:05Z</time></trkpt>
<trkpt lat="46.4601605572" lon="6.9653047901"><ele>1273.88</ele><time>2014-06-16T13:00:18Z</time></trkpt>
<trkpt lat="46.4601803385" lon="6.9654505514"><ele>1275.81</ele><time>2014-06-16T13:00:27Z</time></trkpt>
<trkpt lat="46.4602626488" lon="6.9656646252"><ele>1278.69</ele><time>2014-06-16T13:00:42Z</time></trkpt>
<trkpt lat="46.4603737928" lon="6.9658149127"><ele>1278.21</ele><time>2014-06-16T13:00:55Z</time></trkpt>
<trkpt lat="46.4605023712" lon="6.9659014139"><ele>1281.57</ele><time>2014-06-16T13:01:08Z</time></trkpt>
<trkpt lat="46.4606176224" lon="6.9659202732"><ele>1287.82</ele><time>2014-06-16T13:01:20Z</time></trkpt>
<trkpt lat="46.4607098233" lon="6.9659299124"><ele>1291.19</ele><time>2014-06-16T13:01:29Z</time></trkpt>
<trkpt lat="46.4607781358" lon="6.9659342710"><ele>1292.15</ele><time>2014-06-16T13:01:36Z</time></trkpt>
<trkpt lat="46.4608798083" lon="6.9659778569"><ele>1292.63</ele><time>2014-06-16T13:01:47Z</time></trkpt>
<trkpt lat="46.4608974103" lon="6.9659860712"><ele>1292.15</ele><time>2014-06-16T13:01:49Z</time></trkpt>
<trkpt lat="46.4610388968" lon="6.9660431519"><ele>1293.11</ele><time>2014-06-16T13:02:02Z</time></trkpt>
<trkpt lat="46.4611564111" lon="6.9661026634"><ele>1296.96</ele><time>2014-06-16T13:02:14Z</time></trkpt>
<trkpt lat="46.4612597600" lon="6.9661766756"><ele>1302.24</ele><time>2014-06-16T13:02:26Z</time></trkpt>
<trkpt lat="46.4613252226" lon="6.9662154000"><ele>1304.65</ele><time>2014-06-16T13:02:35Z</time></trkpt>
<trkpt lat="46.4613941219" lon="6.9662586506"><ele>1305.61</ele><time>2014-06-16T13:02:43Z</time></trkpt>
<trkpt lat="46.4615460020" lon="6.9662913401"><ele>1309.45</ele><time>2014-06-16T13:02:55Z</time></trkpt>
<trkpt lat="46.4616715629" lon="6.9663630892"><ele>1318.1</ele><time>2014-06-16T13:03:07Z</time></trkpt>
<trkpt lat="46.4617435634" lon="6.9663938507"><ele>1323.39</ele><time>2014-06-16T13:03:14Z</time></trkpt>
<trkpt lat="46.4618171565" lon="6.9664690364"><ele>1326.76</ele><time>2014-06-16T13:03:25Z</time></trkpt>
<trkpt lat="46.4619282167" lon="6.9665624946"><ele>1329.64</ele><time>2014-06-16T13:03:35Z</time></trkpt>
<trkpt lat="46.4620036539" lon="6.9666116126"><ele>1330.12</ele><time>2014-06-16T13:03:44Z</time></trkpt>
<trkpt lat="46.4620234352" lon="6.9666268677"><ele>1331.08</ele><time>2014-06-16T13:03:46Z</time></trkpt>
<trkpt lat="46.4621357527" lon="6.9666737225"><ele>1330.6</ele><time>2014-06-16T13:03:56Z</time></trkpt>
<trkpt lat="46.4622115251" lon="6.9667034782"><ele>1332.52</ele><time>2014-06-16T13:04:05Z</time></trkpt>
<trkpt lat="46.4623073302" lon="6.9667588826"><ele>1332.52</ele><time>2014-06-16T13:04:14Z</time></trkpt>
<trkpt lat="46.4624092542" lon="6.9667970203"><ele>1334.45</ele><time>2014-06-16T13:04:25Z</time></trkpt>
<trkpt lat="46.4625416044" lon="6.9668017980"><ele>1334.45</ele><time>2014-06-16T13:04:36Z</time></trkpt>
<trkpt lat="46.4626641478" lon="6.9668336492"><ele>1336.85</ele><time>2014-06-16T13:04:47Z</time></trkpt>
<trkpt lat="46.4627289400" lon="6.9668657519"><ele>1338.77</ele><time>2014-06-16T13:04:56Z</time></trkpt>
<trkpt lat="46.4628073107" lon="6.9669030514"><ele>1341.18</ele><time>2014-06-16T13:05:06Z</time></trkpt>
<trkpt lat="46.4628760424" lon="6.9669320527"><ele>1343.1</ele><time>2014-06-16T13:05:15Z</time></trkpt>
<trkpt lat="46.4629574306" lon="6.9669233356"><ele>1345.02</ele><time>2014-06-16T13:05:26Z</time></trkpt>
<trkpt lat="46.4630608633" lon="6.9669265207"><ele>1345.5</ele><time>2014-06-16T13:05:37Z</time></trkpt>
<trkpt lat="46.4631953929" lon="6.9669913966"><ele>1349.35</ele><time>2014-06-16T13:05:49Z</time></trkpt>
<trkpt lat="46.4632528927" lon="6.9670310430"><ele>1348.39</ele><time>2014-06-16T13:05:58Z</time></trkpt>
<trkpt lat="46.4633480273" lon="6.9670408498"><ele>1348.39</ele><time>2014-06-16T13:06:08Z</time></trkpt>
<trkpt lat="46.4634578303" lon="6.9670607150"><ele>1351.27</ele><time>2014-06-16T13:06:17Z</time></trkpt>
<trkpt lat="46.4635263104" lon="6.9671074860"><ele>1353.19</ele><time>2014-06-16T13:06:23Z</time></trkpt>
<trkpt lat="46.4636841416" lon="6.9672132656"><ele>1362.33</ele><time>2014-06-16T13:06:36Z</time></trkpt>
<trkpt lat="46.4638251252" lon="6.9672406744"><ele>1367.13</ele><time>2014-06-16T13:06:48Z</time></trkpt>
<trkpt lat="46.4638556354" lon="6.9672332983"><ele>1368.09</ele><time>2014-06-16T13:06:50Z</time></trkpt>
<trkpt lat="46.4640568849" lon="6.9671959151"><ele>1371.94</ele><time>2014-06-16T13:07:02Z</time></trkpt>
<trkpt lat="46.4642528538" lon="6.9671947416"><ele>1377.23</ele><time>2014-06-16T13:07:12Z</time></trkpt>
<trkpt lat="46.4644737169" lon="6.9672691729"><ele>1383.47</ele><time>2014-06-16T13:07:22Z</time></trkpt>
<trkpt lat="46.4645097591" lon="6.9673154410"><ele>1383.96</ele><time>2014-06-16T13:07:24Z</time></trkpt>
<trkpt lat="46.4644012135" lon="6.9674327876"><ele>1377.71</ele><time>2014-06-16T13:07:33Z</time></trkpt>
<trkpt lat="46.4642962720" lon="6.9675583486"><ele>1372.9</ele><time>2014-06-16T13:07:40Z</time></trkpt>
<trkpt lat="46.4641891513" lon="6.9678594265"><ele>1368.57</ele><time>2014-06-16T13:07:55Z</time></trkpt>
<trkpt lat="46.4641459007" lon="6.9680324290"><ele>1366.65</ele><time>2014-06-16T13:08:05Z</time></trkpt>
<trkpt lat="46.4640134666" lon="6.9682335947"><ele>1363.29</ele><time>2014-06-16T13:08:16Z</time></trkpt>
<trkpt lat="46.4639844652" lon="6.9683419727"><ele>1362.33</ele><time>2014-06-16T13:08:18Z</time></trkpt>
<trkpt lat="46.4639525302" lon="6.9684547093"><ele>1361.36</ele><time>2014-06-16T13:08:20Z</time></trkpt>
<trkpt lat="46.4636532962" lon="6.9687138777"><ele>1357.04</ele><time>2014-06-16T13:08:28Z</time></trkpt>
<trkpt lat="46.4632560778" lon="6.9687903207"><ele>1355.6</ele><time>2014-06-16T13:08:38Z</time></trkpt>
<trkpt lat="46.4631329477" lon="6.9688370079"><ele>1355.6</ele><time>2014-06-16T13:08:41Z</time></trkpt>
<trkpt lat="46.4630408306" lon="6.9688503351"><ele>1355.6</ele><time>2014-06-16T13:08:43Z</time></trkpt>
<trkpt lat="46.4623624831" lon="6.9689080864"><ele>1354.63</ele><time>2014-06-16T13:08:55Z</time></trkpt>
<trkpt lat="46.4617223572" lon="6.9689368363"><ele>1353.67</ele><time>2014-06-16T13:09:05Z</time></trkpt>
<trkpt lat="46.4614677988" lon="6.9689603895"><ele>1353.67</ele><time>2014-06-16T13:09:09Z</time></trkpt>
<trkpt lat="46.4612334408" lon="6.9689458050"><ele>1353.19</ele><time>2014-06-16T13:09:13Z</time></trkpt>
<trkpt lat="46.4609676506" lon="6.9690287858"><ele>1352.23</ele><time>2014-06-16T13:09:18Z</time></trkpt>
<trkpt lat="46.4608157706" lon="6.9690685160"><ele>1352.23</ele><time>2014-06-16T13:09:21Z</time></trkpt>
<trkpt lat="46.4605046343" lon="6.9693217333"><ele>1351.27</ele><time>2014-06-16T13:09:28Z</time></trkpt>
<trkpt lat="46.4602924045" lon="6.9694326259"><ele>1349.83</ele><time>2014-06-16T13:09:33Z</time></trkpt>
<trkpt lat="46.4598728064" lon="6.9697396550"><ele>1347.91</ele><time>2014-06-16T13:09:42Z</time></trkpt>
<trkpt lat="46.4597102813" lon="6.9698698260"><ele>1345.98</ele><time>2014-06-16T13:09:46Z</time></trkpt>
<trkpt lat="46.4596180804" lon="6.9697754458"><ele>1343.58</ele><time>2014-06-16T13:09:50Z</time></trkpt>
<trkpt lat="46.4596086089" lon="6.9697290938"><ele>1343.1</ele><time>2014-06-16T13:09:52Z</time></trkpt>
<trkpt lat="46.4595112950" lon="6.9697409123"><ele>1340.7</ele><time>2014-06-16T13:10:00Z</time></trkpt>
<trkpt lat="46.4593738317" lon="6.9699011743"><ele>1337.81</ele><time>2014-06-16T13:10:12Z</time></trkpt>
<trkpt lat="46.4593328442" lon="6.9702026714"><ele>1321.47</ele><time>2014-06-16T13:10:26Z</time></trkpt>
<trkpt lat="46.4592874143" lon="6.9704631809"><ele>1304.17</ele><time>2014-06-16T13:10:40Z</time></trkpt>
<trkpt lat="46.4590567444" lon="6.9706436433"><ele>1306.09</ele><time>2014-06-16T13:10:55Z</time></trkpt>
<trkpt lat="46.4589976519" lon="6.9708895683"><ele>1307.05</ele><time>2014-06-16T13:11:07Z</time></trkpt>
<trkpt lat="46.4589463547" lon="6.9712205697"><ele>1306.57</ele><time>2014-06-16T13:11:20Z</time></trkpt>
<trkpt lat="46.4589269087" lon="6.9712790754"><ele>1307.05</ele><time>2014-06-16T13:11:22Z</time></trkpt>
<trkpt lat="46.4588349592" lon="6.9713031314"><ele>1307.05</ele><time>2014-06-16T13:11:28Z</time></trkpt>
<trkpt lat="46.4586663153" lon="6.9713281095"><ele>1307.53</ele><time>2014-06-16T13:11:39Z</time></trkpt>
<trkpt lat="46.4585217275" lon="6.9713250920"><ele>1307.53</ele><time>2014-06-16T13:11:49Z</time></trkpt>
<trkpt lat="46.4585057180" lon="6.9713030476"><ele>1307.53</ele><time>2014-06-16T13:11:51Z</time></trkpt>
<trkpt lat="46.4583737031" lon="6.9712324720"><ele>1307.53</ele><time>2014-06-16T13:12:00Z</time></trkpt>
<trkpt lat="46.4583006967" lon="6.9712792430"><ele>1308.01</ele><time>2014-06-16T13:12:05Z</time></trkpt>
<trkpt lat="46.4582515787" lon="6.9713444542"><ele>1308.49</ele><time>2014-06-16T13:12:09Z</time></trkpt>
<trkpt lat="46.4581475593" lon="6.9715850148"><ele>1308.97</ele><time>2014-06-16T13:12:22Z</time></trkpt>
<trkpt lat="46.4580128621" lon="6.9717052951"><ele>1310.41</ele><time>2014-06-16T13:12:32Z</time></trkpt>
<trkpt lat="46.4578100201" lon="6.9716837537"><ele>1311.86</ele><time>2014-06-16T13:12:44Z</time></trkpt>
<trkpt lat="46.4577042405" lon="6.9718476199"><ele>1312.34</ele><time>2014-06-16T13:12:54Z</time></trkpt>
<trkpt lat="46.4576096088" lon="6.9719978236"><ele>1313.78</ele><time>2014-06-16T13:13:04Z</time></trkpt>
<trkpt lat="46.4575797692" lon="6.9720342010"><ele>1313.78</ele><time>2014-06-16T13:13:07Z</time></trkpt>
<trkpt lat="46.4575425535" lon="6.9720514677"><ele>1314.26</ele><time>2014-06-16T13:13:10Z</time></trkpt>
<trkpt lat="46.4573847223" lon="6.9721695688"><ele>1315.7</ele><time>2014-06-16T13:13:22Z</time></trkpt>
<trkpt lat="46.4572079480" lon="6.9722710736"><ele>1317.14</ele><time>2014-06-16T13:13:37Z</time></trkpt>
<trkpt lat="46.4571242128" lon="6.9722761866"><ele>1317.62</ele><time>2014-06-16T13:13:44Z</time></trkpt>
<trkpt lat="46.4569343626" lon="6.9721854106"><ele>1317.62</ele><time>2014-06-16T13:13:58Z</time></trkpt>
<trkpt lat="46.4567818958" lon="6.9721657131"><ele>1318.59</ele><time>2014-06-16T13:14:09Z</time></trkpt>
<trkpt lat="46.4566106535" lon="6.9722943753"><ele>1320.99</ele><time>2014-06-16T13:14:21Z</time></trkpt>
<trkpt lat="46.4563670754" lon="6.9724035077"><ele>1324.35</ele><time>2014-06-16T13:14:36Z</time></trkpt>
<trkpt lat="46.4563117549" lon="6.9724268094"><ele>1325.31</ele><time>2014-06-16T13:14:40Z</time></trkpt>
<trkpt lat="46.4562699292" lon="6.9723962154"><ele>1325.31</ele><time>2014-06-16T13:14:44Z</time></trkpt>
<trkpt lat="46.4561404288" lon="6.9723604247"><ele>1326.76</ele><time>2014-06-16T13:14:56Z</time></trkpt>
<trkpt lat="46.4559830166" lon="6.9725204352"><ele>1329.64</ele><time>2014-06-16T13:15:09Z</time></trkpt>
<trkpt lat="46.4558391832" lon="6.9726625085"><ele>1331.56</ele><time>2014-06-16T13:15:20Z</time></trkpt>
<trkpt lat="46.4556772448" lon="6.9725470897"><ele>1333.97</ele><time>2014-06-16T13:15:33Z</time></trkpt>
<trkpt lat="46.4555598143" lon="6.9723378774"><ele>1334.93</ele><time>2014-06-16T13:15:45Z</time></trkpt>
<trkpt lat="46.4555341657" lon="6.9723025057"><ele>1335.41</ele><time>2014-06-16T13:15:48Z</time></trkpt>
<trkpt lat="46.4553051721" lon="6.9722676370"><ele>1339.25</ele><time>2014-06-16T13:16:00Z</time></trkpt>
<trkpt lat="46.4550822135" lon="6.9721755199"><ele>1340.22</ele><time>2014-06-16T13:16:13Z</time></trkpt>
<trkpt lat="46.4549074508" lon="6.9720486179"><ele>1341.66</ele><time>2014-06-16T13:16:25Z</time></trkpt>
<trkpt lat="46.4548096340" lon="6.9720161799"><ele>1341.66</ele><time>2014-06-16T13:16:36Z</time></trkpt>
<trkpt lat="46.4547194447" lon="6.9719579257"><ele>1340.22</ele><time>2014-06-16T13:16:45Z</time></trkpt>
<trkpt lat="46.4546394814" lon="6.9719074667"><ele>1338.29</ele><time>2014-06-16T13:16:54Z</time></trkpt>
<trkpt lat="46.4545680676" lon="6.9718177803"><ele>1338.29</ele><time>2014-06-16T13:17:03Z</time></trkpt>
<trkpt lat="46.4544846676" lon="6.9717259146"><ele>1338.77</ele><time>2014-06-16T13:17:12Z</time></trkpt>
<trkpt lat="46.4543942269" lon="6.9716623798"><ele>1340.22</ele><time>2014-06-16T13:17:22Z</time></trkpt>
<trkpt lat="46.4543702547" lon="6.9716244098"><ele>1340.7</ele><time>2014-06-16T13:17:25Z</time></trkpt>
<trkpt lat="46.4541644789" lon="6.9713653252"><ele>1351.27</ele><time>2014-06-16T13:17:39Z</time></trkpt>
<trkpt lat="46.4539816696" lon="6.9712339807"><ele>1357.04</ele><time>2014-06-16T13:17:52Z</time></trkpt>
<trkpt lat="46.4539299533" lon="6.9712138642"><ele>1358.48</ele><time>2014-06-16T13:17:56Z</time></trkpt>
<trkpt lat="46.4538282808" lon="6.9712344836"><ele>1360.88</ele><time>2014-06-16T13:18:04Z</time></trkpt>
<trkpt lat="46.4537726250" lon="6.9712443743"><ele>1362.33</ele><time>2014-06-16T13:18:08Z</time></trkpt>
<trkpt lat="46.4536030591" lon="6.9713195600"><ele>1363.77</ele><time>2014-06-16T13:18:20Z</time></trkpt>
<trkpt lat="46.4534704573" lon="6.9713681750"><ele>1365.21</ele><time>2014-06-16T13:18:30Z</time></trkpt>
<trkpt lat="46.4533268753" lon="6.9714397565"><ele>1368.09</ele><time>2014-06-16T13:18:41Z</time></trkpt>
<trkpt lat="46.4531994704" lon="6.9715618808"><ele>1370.02</ele><time>2014-06-16T13:18:52Z</time></trkpt>
<trkpt lat="46.4531503525" lon="6.9716115016"><ele>1370.98</ele><time>2014-06-16T13:18:56Z</time></trkpt>
<trkpt lat="46.4529820438" lon="6.9717568439"><ele>1373.86</ele><time>2014-06-16T13:19:09Z</time></trkpt>
<trkpt lat="46.4527569897" lon="6.9718464464"><ele>1379.15</ele><time>2014-06-16T13:19:22Z</time></trkpt>
<trkpt lat="46.4526676387" lon="6.9718940556"><ele>1380.59</ele><time>2014-06-16T13:19:28Z</time></trkpt>
<trkpt lat="46.4525993261" lon="6.9719746895"><ele>1381.55</ele><time>2014-06-16T13:19:34Z</time></trkpt>
<trkpt lat="46.4524906129" lon="6.9720565807"><ele>1382.51</ele><time>2014-06-16T13:19:45Z</time></trkpt>
<trkpt lat="46.4523917902" lon="6.9721378852"><ele>1383.47</ele><time>2014-06-16T13:19:56Z</time></trkpt>
<trkpt lat="46.4522750303" lon="6.9721574988"><ele>1384.92</ele><time>2014-06-16T13:20:05Z</time></trkpt>
<trkpt lat="46.4522523154" lon="6.9721393939"><ele>1385.4</ele><time>2014-06-16T13:20:07Z</time></trkpt>
<trkpt lat="46.4521793090" lon="6.9719462749"><ele>1391.17</ele><time>2014-06-16T13:20:17Z</time></trkpt>
<trkpt lat="46.4521712624" lon="6.9719258230"><ele>1391.65</ele><time>2014-06-16T13:20:18Z</time></trkpt>
<trkpt lat="46.4520459529" lon="6.9717735238"><ele>1397.41</ele><time>2014-06-16T13:20:29Z</time></trkpt>
<trkpt lat="46.4518768899" lon="6.9718605280"><ele>1401.26</ele><time>2014-06-16T13:20:40Z</time></trkpt>
<trkpt lat="46.4517366607" lon="6.9719751924"><ele>1403.66</ele><time>2014-06-16T13:20:51Z</time></trkpt>
<trkpt lat="46.4515520912" lon="6.9720178563"><ele>1407.99</ele><time>2014-06-16T13:21:03Z</time></trkpt>
<trkpt lat="46.4514419530" lon="6.9720846601"><ele>1411.35</ele><time>2014-06-16T13:21:10Z</time></trkpt>
<trkpt lat="46.4515208267" lon="6.9721934572"><ele>1415.2</ele><time>2014-06-16T13:21:20Z</time></trkpt>
<trkpt lat="46.4516624808" lon="6.9721695688"><ele>1419.04</ele><time>2014-06-16T13:21:31Z</time></trkpt>
<trkpt lat="46.4518150315" lon="6.9721160084"><ele>1424.81</ele><time>2014-06-16T13:21:43Z</time></trkpt>
<trkpt lat="46.4519116748" lon="6.9722592551"><ele>1427.21</ele><time>2014-06-16T13:21:54Z</time></trkpt>
<trkpt lat="46.4519354794" lon="6.9723794516"><ele>1427.7</ele><time>2014-06-16T13:22:01Z</time></trkpt>
<trkpt lat="46.4519580267" lon="6.9726102054"><ele>1429.14</ele><time>2014-06-16T13:22:11Z</time></trkpt>
<trkpt lat="46.4520398341" lon="6.9728523586"><ele>1433.94</ele><time>2014-06-16T13:22:25Z</time></trkpt>
<trkpt lat="46.4520478807" lon="6.9728618301"><ele>1434.91</ele><time>2014-06-16T13:22:26Z</time></trkpt>
<trkpt lat="46.4522221405" lon="6.9728915859"><ele>1437.31</ele><time>2014-06-16T13:22:38Z</time></trkpt>
<trkpt lat="46.4524284191" lon="6.9728381932"><ele>1439.23</ele><time>2014-06-16T13:22:51Z</time></trkpt>
<trkpt lat="46.4526264835" lon="6.9727697968"><ele>1441.63</ele><time>2014-06-16T13:23:05Z</time></trkpt>
<trkpt lat="46.4527975582" lon="6.9727221876"><ele>1442.6</ele><time>2014-06-16T13:23:16Z</time></trkpt>
<trkpt lat="46.4529828820" lon="6.9727937691"><ele>1444.52</ele><time>2014-06-16T13:23:28Z</time></trkpt>
<trkpt lat="46.4530511945" lon="6.9728316553"><ele>1445.48</ele><time>2014-06-16T13:23:32Z</time></trkpt>
<trkpt lat="46.4531193394" lon="6.9728192501"><ele>1446.44</ele><time>2014-06-16T13:23:36Z</time></trkpt>
<trkpt lat="46.4533040766" lon="6.9727499317"><ele>1449.81</ele><time>2014-06-16T13:23:48Z</time></trkpt>
<trkpt lat="46.4535442181" lon="6.9727080222"><ele>1452.21</ele><time>2014-06-16T13:23:59Z</time></trkpt>
<trkpt lat="46.4535639994" lon="6.9727178290"><ele>1452.69</ele><time>2014-06-16T13:24:00Z</time></trkpt>
<trkpt lat="46.4535503369" lon="6.9728407077"><ele>1453.65</ele><time>2014-06-16T13:24:07Z</time></trkpt>
<trkpt lat="46.4534012228" lon="6.9728424679"><ele>1456.05</ele><time>2014-06-16T13:24:17Z</time></trkpt>
<trkpt lat="46.4533813577" lon="6.9728552923"><ele>1456.53</ele><time>2014-06-16T13:24:19Z</time></trkpt>
<trkpt lat="46.4532544557" lon="6.9730013050"><ele>1460.38</ele><time>2014-06-16T13:24:32Z</time></trkpt>
<trkpt lat="46.4531050064" lon="6.9731183164"><ele>1464.71</ele><time>2014-06-16T13:24:43Z</time></trkpt>
<trkpt lat="46.4529002365" lon="6.9732577074"><ele>1469.51</ele><time>2014-06-16T13:24:56Z</time></trkpt>
<trkpt lat="46.4527294133" lon="6.9734489825"><ele>1473.36</ele><time>2014-06-16T13:25:08Z</time></trkpt>
<trkpt lat="46.4525719173" lon="6.9736289419"><ele>1478.16</ele><time>2014-06-16T13:25:19Z</time></trkpt>
<trkpt lat="46.4525501244" lon="6.9736666605"><ele>1479.13</ele><time>2014-06-16T13:25:21Z</time></trkpt>
<trkpt lat="46.4524199534" lon="6.9739135914"><ele>1482.01</ele><time>2014-06-16T13:25:35Z</time></trkpt>
<trkpt lat="46.4523389842" lon="6.9742015097"><ele>1485.85</ele><time>2014-06-16T13:25:49Z</time></trkpt>
<trkpt lat="46.4523086417" lon="6.9745253865"><ele>1490.18</ele><time>2014-06-16T13:26:02Z</time></trkpt>
<trkpt lat="46.4522450231" lon="6.9748434797"><ele>1496.43</ele><time>2014-06-16T13:26:16Z</time></trkpt>
<trkpt lat="46.4521776326" lon="6.9751091860"><ele>1499.31</ele><time>2014-06-16T13:26:27Z</time></trkpt>
<trkpt lat="46.4521147683" lon="6.9754738826"><ele>1501.24</ele><time>2014-06-16T13:26:39Z</time></trkpt>
<trkpt lat="46.4519882854" lon="6.9759488013"><ele>1505.56</ele><time>2014-06-16T13:26:55Z</time></trkpt>
<trkpt lat="46.4518856909" lon="6.9763694890"><ele>1507.48</ele><time>2014-06-16T13:27:09Z</time></trkpt>
<trkpt lat="46.4517617226" lon="6.9767654501"><ele>1509.41</ele><time>2014-06-16T13:27:22Z</time></trkpt>
<trkpt lat="46.4516477287" lon="6.9770987984"><ele>1511.81</ele><time>2014-06-16T13:27:34Z</time></trkpt>
<trkpt lat="46.4515792485" lon="6.9771958608"><ele>1512.77</ele><time>2014-06-16T13:27:40Z</time></trkpt>
<trkpt lat="46.4515720401" lon="6.9772488344"><ele>1513.25</ele><time>2014-06-16T13:27:43Z</time></trkpt>
<trkpt lat="46.4516224992" lon="6.9773189072"><ele>1514.21</ele><time>2014-06-16T13:27:50Z</time></trkpt>
<trkpt lat="46.4516225830" lon="6.9773391914"><ele>1514.69</ele><time>2014-06-16T13:27:57Z</time></trkpt>
<trkpt lat="46.4516148716" lon="6.9773212541"><ele>1514.21</ele><time>2014-06-16T13:28:25Z</time></trkpt>
<trkpt lat="46.4516125247" lon="6.9773176499"><ele>1513.73</ele><time>2014-06-16T13:28:52Z</time></trkpt>
<trkpt lat="46.4516222477" lon="6.9773270376"><ele>1513.25</ele><time>2014-06-16T13:29:21Z</time></trkpt>
<trkpt lat="46.4516271092" lon="6.9773418736"><ele>1512.77</ele><time>2014-06-16T13:29:55Z</time></trkpt>
<trkpt lat="46.4516268577" lon="6.9773358386"><ele>1514.69</ele><time>2014-06-16T13:30:24Z</time></trkpt>
<trkpt lat="46.4516195655" lon="6.9773334078"><ele>1515.66</ele><time>2014-06-16T13:30:47Z</time></trkpt>
<trkpt lat="46.4516159613" lon="6.9773370959"><ele>1517.58</ele><time>2014-06-16T13:31:13Z</time></trkpt>
<trkpt lat="46.4516256005" lon="6.9773386046"><ele>1517.1</ele><time>2014-06-16T13:31:42Z</time></trkpt>
<trkpt lat="46.4516292047" lon="6.9773318153"><ele>1516.62</ele><time>2014-06-16T13:32:11Z</time></trkpt>
<trkpt lat="46.4516280312" lon="6.9773259480"><ele>1517.58</ele><time>2014-06-16T13:32:39Z</time></trkpt>
<trkpt lat="46.4516271092" lon="6.9773296360"><ele>1517.1</ele><time>2014-06-16T13:33:10Z</time></trkpt>
<trkpt lat="46.4516240079" lon="6.9773270376"><ele>1517.1</ele><time>2014-06-16T13:33:40Z</time></trkpt>
<trkpt lat="46.4516260196" lon="6.9773303904"><ele>1517.1</ele><time>2014-06-16T13:34:02Z</time></trkpt>
<trkpt lat="46.4516272768" lon="6.9773190748"><ele>1516.62</ele><time>2014-06-16T13:34:12Z</time></trkpt>
<trkpt lat="46.4516187273" lon="6.9773256127"><ele>1517.58</ele><time>2014-06-16T13:34:37Z</time></trkpt>
<trkpt lat="46.4516100101" lon="6.9772911631"><ele>1517.58</ele><time>2014-06-16T13:34:48Z</time></trkpt>
<trkpt lat="46.4516108483" lon="6.9772806019"><ele>1517.58</ele><time>2014-06-16T13:35:08Z</time></trkpt>
<trkpt lat="46.4516095910" lon="6.9772821106"><ele>1518.06</ele><time>2014-06-16T13:35:14Z</time></trkpt>
<trkpt lat="46.4516067412" lon="6.9772661850"><ele>1518.06</ele><time>2014-06-16T13:35:16Z</time></trkpt>
<trkpt lat="46.4517131913" lon="6.9769235328"><ele>1515.66</ele><time>2014-06-16T13:35:25Z</time></trkpt>
<trkpt lat="46.4518659934" lon="6.9764025975"><ele>1512.77</ele><time>2014-06-16T13:35:32Z</time></trkpt>
<trkpt lat="46.4521224797" lon="6.9753613137"><ele>1505.08</ele><time>2014-06-16T13:35:45Z</time></trkpt>
<trkpt lat="46.4522721805" lon="6.9747718144"><ele>1498.83</ele><time>2014-06-16T13:35:51Z</time></trkpt>
<trkpt lat="46.4523282554" lon="6.9742463529"><ele>1493.55</ele><time>2014-06-16T13:35:56Z</time></trkpt>
<trkpt lat="46.4525718335" lon="6.9736099150"><ele>1487.3</ele><time>2014-06-16T13:36:03Z</time></trkpt>
<trkpt lat="46.4528175071" lon="6.9733186439"><ele>1482.97</ele><time>2014-06-16T13:36:08Z</time></trkpt>
<trkpt lat="46.4533039927" lon="6.9729234371"><ele>1477.2</ele><time>2014-06-16T13:36:17Z</time></trkpt>
<trkpt lat="46.4535320643" lon="6.9728014804"><ele>1474.32</ele><time>2014-06-16T13:36:22Z</time></trkpt>
<trkpt lat="46.4536537696" lon="6.9727803580"><ele>1472.88</ele><time>2014-06-16T13:36:29Z</time></trkpt>
<trkpt lat="46.4536984451" lon="6.9728218485"><ele>1474.32</ele><time>2014-06-16T13:36:37Z</time></trkpt>
<trkpt lat="46.4537054021" lon="6.9728259556"><ele>1474.32</ele><time>2014-06-16T13:36:38Z</time></trkpt>
<trkpt lat="46.4537835214" lon="6.9728972018"><ele>1476.24</ele><time>2014-06-16T13:36:48Z</time></trkpt>
<trkpt lat="46.4538647421" lon="6.9730474055"><ele>1478.16</ele><time>2014-06-16T13:36:58Z</time></trkpt>
<trkpt lat="46.4539722819" lon="6.9732359145"><ele>1479.61</ele><time>2014-06-16T13:37:08Z</time></trkpt>
<trkpt lat="46.4541095775" lon="6.9734126050"><ele>1483.93</ele><time>2014-06-16T13:37:19Z</time></trkpt>
<trkpt lat="46.4542272594" lon="6.9736425206"><ele>1486.82</ele><time>2014-06-16T13:37:29Z</time></trkpt>
<trkpt lat="46.4542569313" lon="6.9737498928"><ele>1485.85</ele><time>2014-06-16T13:37:33Z</time></trkpt>
<trkpt lat="46.4543726016" lon="6.9740181975"><ele>1484.41</ele><time>2014-06-16T13:37:44Z</time></trkpt>
<trkpt lat="46.4546081331" lon="6.9742389768"><ele>1487.78</ele><time>2014-06-16T13:37:58Z</time></trkpt>
<trkpt lat="46.4546932094" lon="6.9744749274"><ele>1487.78</ele><time>2014-06-16T13:38:09Z</time></trkpt>
<trkpt lat="46.4547012560" lon="6.9745118916"><ele>1487.3</ele><time>2014-06-16T13:38:11Z</time></trkpt>
<trkpt lat="46.4547523856" lon="6.9746099599"><ele>1487.3</ele><time>2014-06-16T13:38:17Z</time></trkpt>
<trkpt lat="46.4548319299" lon="6.9746892527"><ele>1487.3</ele><time>2014-06-16T13:38:27Z</time></trkpt>
<trkpt lat="46.4548999071" lon="6.9748120476"><ele>1487.78</ele><time>2014-06-16T13:38:37Z</time></trkpt>
<trkpt lat="46.4549086243" lon="6.9748292305"><ele>1487.3</ele><time>2014-06-16T13:38:38Z</time></trkpt>
<trkpt lat="46.4550812915" lon="6.9750650972"><ele>1488.74</ele><time>2014-06-16T13:38:51Z</time></trkpt>
<trkpt lat="46.4552870672" lon="6.9752417039"><ele>1491.14</ele><time>2014-06-16T13:39:04Z</time></trkpt>
<trkpt lat="46.4555163123" lon="6.9753163867"><ele>1492.58</ele><time>2014-06-16T13:39:16Z</time></trkpt>
<trkpt lat="46.4557238482" lon="6.9752508402"><ele>1493.55</ele><time>2014-06-16T13:39:28Z</time></trkpt>
<trkpt lat="46.4559028856" lon="6.9753552787"><ele>1494.51</ele><time>2014-06-16T13:39:39Z</time></trkpt>
<trkpt lat="46.4561081585" lon="6.9753183983"><ele>1493.55</ele><time>2014-06-16T13:39:50Z</time></trkpt>
<trkpt lat="46.4563419297" lon="6.9752638321"><ele>1494.03</ele><time>2014-06-16T13:40:02Z</time></trkpt>
<trkpt lat="46.4565321151" lon="6.9752824400"><ele>1494.03</ele><time>2014-06-16T13:40:12Z</time></trkpt>
<trkpt lat="46.4567350410" lon="6.9753699470"><ele>1495.95</ele><time>2014-06-16T13:40:23Z</time></trkpt>
<trkpt lat="46.4569034334" lon="6.9754687697"><ele>1497.87</ele><time>2014-06-16T13:40:33Z</time></trkpt>
<trkpt lat="46.4569471031" lon="6.9754981901"><ele>1497.87</ele><time>2014-06-16T13:40:36Z</time></trkpt>
<trkpt lat="46.4570404775" lon="6.9756618049"><ele>1497.87</ele><time>2014-06-16T13:40:46Z</time></trkpt>
<trkpt lat="46.4570674673" lon="6.9757220708"><ele>1497.87</ele><time>2014-06-16T13:40:49Z</time></trkpt>
<trkpt lat="46.4572893362" lon="6.9757922273"><ele>1501.24</ele><time>2014-06-16T13:41:01Z</time></trkpt>
<trkpt lat="46.4574927650" lon="6.9759228174"><ele>1504.12</ele><time>2014-06-16T13:41:13Z</time></trkpt>
<trkpt lat="46.4576788433" lon="6.9758374058"><ele>1505.56</ele><time>2014-06-16T13:41:23Z</time></trkpt>
<trkpt lat="46.4576945174" lon="6.9758198038"><ele>1505.56</ele><time>2014-06-16T13:41:24Z</time></trkpt>
<trkpt lat="46.4578555338" lon="6.9756798260"><ele>1507.48</ele><time>2014-06-16T13:41:34Z</time></trkpt>
<trkpt lat="46.4580940828" lon="6.9756061491"><ele>1507.48</ele><time>2014-06-16T13:41:46Z</time></trkpt>
<trkpt lat="46.4582879562" lon="6.9756299537"><ele>1509.89</ele><time>2014-06-16T13:41:56Z</time></trkpt>
<trkpt lat="46.4584632218" lon="6.9757845998"><ele>1513.25</ele><time>2014-06-16T13:42:07Z</time></trkpt>
<trkpt lat="46.4586866833" lon="6.9757786486"><ele>1514.21</ele><time>2014-06-16T13:42:19Z</time></trkpt>
<trkpt lat="46.4589102287" lon="6.9756934047"><ele>1515.18</ele><time>2014-06-16T13:42:32Z</time></trkpt>
<trkpt lat="46.4591109753" lon="6.9756350666"><ele>1515.66</ele><time>2014-06-16T13:42:42Z</time></trkpt>
<trkpt lat="46.4593130630" lon="6.9757518265"><ele>1518.54</ele><time>2014-06-16T13:42:53Z</time></trkpt>
<trkpt lat="46.4594701398" lon="6.9756886270"><ele>1519.02</ele><time>2014-06-16T13:43:02Z</time></trkpt>
<trkpt lat="46.4596577268" lon="6.9756027963"><ele>1520.94</ele><time>2014-06-16T13:43:13Z</time></trkpt>
<trkpt lat="46.4598246105" lon="6.9757671654"><ele>1523.83</ele><time>2014-06-16T13:43:24Z</time></trkpt>
<trkpt lat="46.4600145444" lon="6.9756478909"><ele>1523.35</ele><time>2014-06-16T13:43:35Z</time></trkpt>
<trkpt lat="46.4602371678" lon="6.9756221585"><ele>1525.27</ele><time>2014-06-16T13:43:47Z</time></trkpt>
<trkpt lat="46.4604978450" lon="6.9756184705"><ele>1526.71</ele><time>2014-06-16T13:44:00Z</time></trkpt>
<trkpt lat="46.4606690034" lon="6.9757043850"><ele>1529.11</ele><time>2014-06-16T13:44:09Z</time></trkpt>
<trkpt lat="46.4609039482" lon="6.9756549317"><ele>1529.59</ele><time>2014-06-16T13:44:23Z</time></trkpt>
<trkpt lat="46.4611315168" lon="6.9755254313"><ele>1532</ele><time>2014-06-16T13:44:36Z</time></trkpt>
<trkpt lat="46.4612477738" lon="6.9753065798"><ele>1534.4</ele><time>2014-06-16T13:44:46Z</time></trkpt>
<trkpt lat="46.4614115562" lon="6.9752259459"><ele>1536.8</ele><time>2014-06-16T13:44:56Z</time></trkpt>
<trkpt lat="46.4616098721" lon="6.9750837889"><ele>1538.73</ele><time>2014-06-16T13:45:08Z</time></trkpt>
<trkpt lat="46.4618161507" lon="6.9749236107"><ele>1540.17</ele><time>2014-06-16T13:45:19Z</time></trkpt>
<trkpt lat="46.4620347507" lon="6.9746963773"><ele>1541.61</ele><time>2014-06-16T13:45:30Z</time></trkpt>
<trkpt lat="46.4622751437" lon="6.9746548031"><ele>1543.05</ele><time>2014-06-16T13:45:42Z</time></trkpt>
<trkpt lat="46.4625694323" lon="6.9745867420"><ele>1546.9</ele><time>2014-06-16T13:45:57Z</time></trkpt>
<trkpt lat="46.4628753718" lon="6.9744869974"><ele>1548.82</ele><time>2014-06-16T13:46:13Z</time></trkpt>
<trkpt lat="46.4631118253" lon="6.9744041841"><ele>1551.71</ele><time>2014-06-16T13:46:25Z</time></trkpt>
<trkpt lat="46.4633917809" lon="6.9743131567"><ele>1553.63</ele><time>2014-06-16T13:46:39Z</time></trkpt>
<trkpt lat="46.4636742510" lon="6.9741961453"><ele>1555.55</ele><time>2014-06-16T13:46:53Z</time></trkpt>
<trkpt lat="46.4639537036" lon="6.9741854165"><ele>1558.92</ele><time>2014-06-16T13:47:06Z</time></trkpt>
<trkpt lat="46.4639931824" lon="6.9741905294"><ele>1559.4</ele><time>2014-06-16T13:47:08Z</time></trkpt>
<trkpt lat="46.4642427955" lon="6.9741596840"><ele>1560.84</ele><time>2014-06-16T13:47:20Z</time></trkpt>
<trkpt lat="46.4645181410" lon="6.9741562475"><ele>1562.76</ele><time>2014-06-16T13:47:33Z</time></trkpt>
<trkpt lat="46.4647573605" lon="6.9741422497"><ele>1564.68</ele><time>2014-06-16T13:47:45Z</time></trkpt>
<trkpt lat="46.4649250824" lon="6.9740172755"><ele>1566.12</ele><time>2014-06-16T13:47:55Z</time></trkpt>
<trkpt lat="46.4649360627" lon="6.9740196224"><ele>1565.16</ele><time>2014-06-16T13:48:01Z</time></trkpt>
<trkpt lat="46.4649441093" lon="6.9740110729"><ele>1566.12</ele><time>2014-06-16T13:48:18Z</time></trkpt>
<trkpt lat="46.4649524074" lon="6.9740060437"><ele>1567.09</ele><time>2014-06-16T13:48:34Z</time></trkpt>
<trkpt lat="46.4649619628" lon="6.9740060437"><ele>1568.05</ele><time>2014-06-16T13:48:56Z</time></trkpt>
<trkpt lat="46.4649664890" lon="6.9739984162"><ele>1568.53</ele><time>2014-06-16T13:49:12Z</time></trkpt>
<trkpt lat="46.4649710152" lon="6.9739929680"><ele>1568.05</ele><time>2014-06-16T13:49:21Z</time></trkpt>
<trkpt lat="46.4649819117" lon="6.9739710912"><ele>1568.05</ele><time>2014-06-16T13:49:26Z</time></trkpt>
<trkpt lat="46.4650425129" lon="6.9739274215"><ele>1568.53</ele><time>2014-06-16T13:49:30Z</time></trkpt>
<trkpt lat="46.4653440937" lon="6.9738319516"><ele>1568.53</ele><time>2014-06-16T13:49:44Z</time></trkpt>
<trkpt lat="46.4655590057" lon="6.9737687521"><ele>1569.97</ele><time>2014-06-16T13:49:54Z</time></trkpt>
<trkpt lat="46.4658185933" lon="6.9736831728"><ele>1570.45</ele><time>2014-06-16T13:50:06Z</time></trkpt>
<trkpt lat="46.4661010634" lon="6.9735129364"><ele>1571.89</ele><time>2014-06-16T13:50:19Z</time></trkpt>
<trkpt lat="46.4663674403" lon="6.9735307060"><ele>1572.85</ele><time>2014-06-16T13:50:31Z</time></trkpt>
<trkpt lat="46.4665212482" lon="6.9733344018"><ele>1574.78</ele><time>2014-06-16T13:50:40Z</time></trkpt>
<trkpt lat="46.4667250123" lon="6.9732011296"><ele>1576.22</ele><time>2014-06-16T13:50:49Z</time></trkpt>
<trkpt lat="46.4669618011" lon="6.9732938334"><ele>1578.62</ele><time>2014-06-16T13:50:59Z</time></trkpt>
<trkpt lat="46.4670807403" lon="6.9733502436"><ele>1579.1</ele><time>2014-06-16T13:51:04Z</time></trkpt>
<trkpt lat="46.4674176089" lon="6.9733963441"><ele>1578.62</ele><time>2014-06-16T13:51:17Z</time></trkpt>
<trkpt lat="46.4677471854" lon="6.9734573644"><ele>1578.62</ele><time>2014-06-16T13:51:29Z</time></trkpt>
<trkpt lat="46.4678376261" lon="6.9731995370"><ele>1578.62</ele><time>2014-06-16T13:51:35Z</time></trkpt>
<trkpt lat="46.4679467585" lon="6.9728758279"><ele>1579.1</ele><time>2014-06-16T13:51:43Z</time></trkpt>
<trkpt lat="46.4682437293" lon="6.9728713855"><ele>1581.03</ele><time>2014-06-16T13:51:52Z</time></trkpt>
<trkpt lat="46.4684118703" lon="6.9726542104"><ele>1581.99</ele><time>2014-06-16T13:51:59Z</time></trkpt>
<trkpt lat="46.4687049855" lon="6.9725206029"><ele>1585.35</ele><time>2014-06-16T13:52:09Z</time></trkpt>
<trkpt lat="46.4691207279" lon="6.9725160766"><ele>1585.35</ele><time>2014-06-16T13:52:22Z</time></trkpt>
<trkpt lat="46.4695127495" lon="6.9726144802"><ele>1585.83</ele><time>2014-06-16T13:52:35Z</time></trkpt>
<trkpt lat="46.4699238818" lon="6.9727626722"><ele>1583.43</ele><time>2014-06-16T13:52:47Z</time></trkpt>
<trkpt lat="46.4702309109" lon="6.9728262909"><ele>1579.1</ele><time>2014-06-16T13:52:56Z</time></trkpt>
<trkpt lat="46.4703087788" lon="6.9728133827"><ele>1578.14</ele><time>2014-06-16T13:52:58Z</time></trkpt>
<trkpt lat="46.4705928415" lon="6.9727744907"><ele>1574.3</ele><time>2014-06-16T13:53:06Z</time></trkpt>
<trkpt lat="46.4706577174" lon="6.9726691302"><ele>1573.82</ele><time>2014-06-16T13:53:09Z</time></trkpt>
<trkpt lat="46.4707059134" lon="6.9725656137"><ele>1573.33</ele><time>2014-06-16T13:53:11Z</time></trkpt>
<trkpt lat="46.4708235953" lon="6.9722965546"><ele>1571.41</ele><time>2014-06-16T13:53:15Z</time></trkpt>
<trkpt lat="46.4709161315" lon="6.9721625280"><ele>1570.93</ele><time>2014-06-16T13:53:17Z</time></trkpt>
<trkpt lat="46.4710701909" lon="6.9719741866"><ele>1569.01</ele><time>2014-06-16T13:53:20Z</time></trkpt>
<trkpt lat="46.4713651501" lon="6.9719272479"><ele>1567.09</ele><time>2014-06-16T13:53:25Z</time></trkpt>
<trkpt lat="46.4717440959" lon="6.9719582610"><ele>1565.16</ele><time>2014-06-16T13:53:31Z</time></trkpt>
<trkpt lat="46.4719126560" lon="6.9718276709"><ele>1564.68</ele><time>2014-06-16T13:53:34Z</time></trkpt>
<trkpt lat="46.4721713215" lon="6.9715898763"><ele>1563.24</ele><time>2014-06-16T13:53:39Z</time></trkpt>
<trkpt lat="46.4724936057" lon="6.9710899796"><ele>1562.76</ele><time>2014-06-16T13:53:48Z</time></trkpt>
<trkpt lat="46.4724690467" lon="6.9706576411"><ele>1562.76</ele><time>2014-06-16T13:53:55Z</time></trkpt>
<trkpt lat="46.4724697173" lon="6.9702575728"><ele>1561.8</ele><time>2014-06-16T13:54:02Z</time></trkpt>
<trkpt lat="46.4726581424" lon="6.9698305149"><ele>1559.4</ele><time>2014-06-16T13:54:08Z</time></trkpt>
<trkpt lat="46.4727834519" lon="6.9695587736"><ele>1556.99</ele><time>2014-06-16T13:54:11Z</time></trkpt>
<trkpt lat="46.4728743117" lon="6.9691254292"><ele>1555.07</ele><time>2014-06-16T13:54:15Z</time></trkpt>
<trkpt lat="46.4726874791" lon="6.9685680326"><ele>1553.63</ele><time>2014-06-16T13:54:21Z</time></trkpt>
<trkpt lat="46.4725791011" lon="6.9684694614"><ele>1553.63</ele><time>2014-06-16T13:54:23Z</time></trkpt>
<trkpt lat="46.4720541425" lon="6.9681517873"><ele>1554.59</ele><time>2014-06-16T13:54:34Z</time></trkpt>
<trkpt lat="46.4719521347" lon="6.9679290801"><ele>1554.11</ele><time>2014-06-16T13:54:39Z</time></trkpt>
<trkpt lat="46.4721722435" lon="6.9674852584"><ele>1555.55</ele><time>2014-06-16T13:54:50Z</time></trkpt>
<trkpt lat="46.4724027459" lon="6.9673522376"><ele>1557.47</ele><time>2014-06-16T13:55:01Z</time></trkpt>
<trkpt lat="46.4726878144" lon="6.9674980827"><ele>1561.32</ele><time>2014-06-16T13:55:14Z</time></trkpt>
<trkpt lat="46.4728769939" lon="6.9678153377"><ele>1565.64</ele><time>2014-06-16T13:55:28Z</time></trkpt>
<trkpt lat="46.4730515890" lon="6.9680605084"><ele>1567.57</ele><time>2014-06-16T13:55:40Z</time></trkpt>
<trkpt lat="46.4732552692" lon="6.9682425633"><ele>1569.01</ele><time>2014-06-16T13:55:51Z</time></trkpt>
<trkpt lat="46.4735257532" lon="6.9682326727"><ele>1569.01</ele><time>2014-06-16T13:56:01Z</time></trkpt>
<trkpt lat="46.4739683177" lon="6.9680678844"><ele>1569.97</ele><time>2014-06-16T13:56:14Z</time></trkpt>
<trkpt lat="46.4743910171" lon="6.9678717479"><ele>1573.33</ele><time>2014-06-16T13:56:27Z</time></trkpt>
<trkpt lat="46.4746319968" lon="6.9677624479"><ele>1573.82</ele><time>2014-06-16T13:56:37Z</time></trkpt>
<trkpt lat="46.4748324081" lon="6.9676577579"><ele>1575.26</ele><time>2014-06-16T13:56:48Z</time></trkpt>
<trkpt lat="46.4751083404" lon="6.9675458595"><ele>1574.78</ele><time>2014-06-16T13:57:02Z</time></trkpt>
<trkpt lat="46.4753717836" lon="6.9674658962"><ele>1579.1</ele><time>2014-06-16T13:57:14Z</time></trkpt>
<trkpt lat="46.4756790642" lon="6.9673872739"><ele>1582.47</ele><time>2014-06-16T13:57:28Z</time></trkpt>
<trkpt lat="46.4759475365" lon="6.9673364796"><ele>1581.99</ele><time>2014-06-16T13:57:41Z</time></trkpt>
<trkpt lat="46.4761985745" lon="6.9673002698"><ele>1581.51</ele><time>2014-06-16T13:57:52Z</time></trkpt>
<trkpt lat="46.4764789492" lon="6.9672916364"><ele>1580.06</ele><time>2014-06-16T13:58:04Z</time></trkpt>
<trkpt lat="46.4765418135" lon="6.9672505651"><ele>1578.62</ele><time>2014-06-16T13:58:13Z</time></trkpt>
<trkpt lat="46.4765427355" lon="6.9672532473"><ele>1579.1</ele><time>2014-06-16T13:58:31Z</time></trkpt>
<trkpt lat="46.4765440766" lon="6.9672395010"><ele>1579.1</ele><time>2014-06-16T13:58:58Z</time></trkpt>
<trkpt lat="46.4765448309" lon="6.9672414288"><ele>1580.06</ele><time>2014-06-16T13:59:27Z</time></trkpt>
<trkpt lat="46.4765573200" lon="6.9672277663"><ele>1579.58</ele><time>2014-06-16T13:59:41Z</time></trkpt>
<trkpt lat="46.4765638579" lon="6.9671407621"><ele>1579.58</ele><time>2014-06-16T13:59:45Z</time></trkpt>
<trkpt lat="46.4764536358" lon="6.9667930808"><ele>1579.58</ele><time>2014-06-16T13:59:55Z</time></trkpt>
<trkpt lat="46.4762700722" lon="6.9664178230"><ele>1581.51</ele><time>2014-06-16T14:00:05Z</time></trkpt>
<trkpt lat="46.4763134066" lon="6.9660617597"><ele>1582.95</ele><time>2014-06-16T14:00:14Z</time></trkpt>
<trkpt lat="46.4763968904" lon="6.9656716660"><ele>1584.39</ele><time>2014-06-16T14:00:24Z</time></trkpt>
<trkpt lat="46.4764092118" lon="6.9651667401"><ele>1586.31</ele><time>2014-06-16T14:00:37Z</time></trkpt>
<trkpt lat="46.4762783702" lon="6.9648799114"><ele>1586.31</ele><time>2014-06-16T14:00:47Z</time></trkpt>
<trkpt lat="46.4761182759" lon="6.9646169711"><ele>1587.27</ele><time>2014-06-16T14:00:56Z</time></trkpt>
<trkpt lat="46.4760254044" lon="6.9644671865"><ele>1587.75</ele><time>2014-06-16T14:01:01Z</time></trkpt>
<trkpt lat="46.4757116698" lon="6.9641398732"><ele>1587.75</ele><time>2014-06-16T14:01:14Z</time></trkpt>
<trkpt lat="46.4754170459" lon="6.9639062695"><ele>1591.12</ele><time>2014-06-16T14:01:25Z</time></trkpt>
<trkpt lat="46.4752037264" lon="6.9637295790"><ele>1593.04</ele><time>2014-06-16T14:01:33Z</time></trkpt>
<trkpt lat="46.4749357570" lon="6.9635435008"><ele>1595.45</ele><time>2014-06-16T14:01:43Z</time></trkpt>
<trkpt lat="46.4746797737" lon="6.9632310234"><ele>1599.77</ele><time>2014-06-16T14:01:53Z</time></trkpt>
<trkpt lat="46.4743981417" lon="6.9628108386"><ele>1601.69</ele><time>2014-06-16T14:02:04Z</time></trkpt>
<trkpt lat="46.4741791226" lon="6.9624197390"><ele>1601.21</ele><time>2014-06-16T14:02:13Z</time></trkpt>
<trkpt lat="46.4741920307" lon="6.9622450601"><ele>1600.25</ele><time>2014-06-16T14:02:16Z</time></trkpt>
<trkpt lat="46.4743428212" lon="6.9620497618"><ele>1600.73</ele><time>2014-06-16T14:02:21Z</time></trkpt>
<trkpt lat="46.4748780895" lon="6.9619689602"><ele>1604.1</ele><time>2014-06-16T14:02:35Z</time></trkpt>
<trkpt lat="46.4752203226" lon="6.9619546272"><ele>1607.46</ele><time>2014-06-16T14:02:45Z</time></trkpt>
<trkpt lat="46.4754239190" lon="6.9619609136"><ele>1612.75</ele><time>2014-06-16T14:02:50Z</time></trkpt>
<trkpt lat="46.4756686706" lon="6.9619736541"><ele>1617.56</ele><time>2014-06-16T14:02:56Z</time></trkpt>
<trkpt lat="46.4757594466" lon="6.9619759172"><ele>1618.52</ele><time>2014-06-16T14:02:58Z</time></trkpt>
<trkpt lat="46.4758920483" lon="6.9619941059"><ele>1619.48</ele><time>2014-06-16T14:03:01Z</time></trkpt>
<trkpt lat="46.4762894344" lon="6.9620937668"><ele>1620.92</ele><time>2014-06-16T14:03:11Z</time></trkpt>
<trkpt lat="46.4767018240" lon="6.9622709602"><ele>1620.92</ele><time>2014-06-16T14:03:23Z</time></trkpt>
<trkpt lat="46.4769968670" lon="6.9624598883"><ele>1618.04</ele><time>2014-06-16T14:03:33Z</time></trkpt>
<trkpt lat="46.4772843663" lon="6.9625929929"><ele>1622.84</ele><time>2014-06-16T14:03:44Z</time></trkpt>
<trkpt lat="46.4775705244" lon="6.9627252594"><ele>1624.77</ele><time>2014-06-16T14:03:55Z</time></trkpt>
<trkpt lat="46.4778779726" lon="6.9629134331"><ele>1625.73</ele><time>2014-06-16T14:04:07Z</time></trkpt>
<trkpt lat="46.4781731833" lon="6.9630988408"><ele>1626.21</ele><time>2014-06-16T14:04:18Z</time></trkpt>
<trkpt lat="46.4785391372" lon="6.9633266609"><ele>1624.77</ele><time>2014-06-16T14:04:30Z</time></trkpt>
<trkpt lat="46.4788351022" lon="6.9635187741"><ele>1625.25</ele><time>2014-06-16T14:04:40Z</time></trkpt>
<trkpt lat="46.4791923389" lon="6.9637188502"><ele>1625.25</ele><time>2014-06-16T14:04:52Z</time></trkpt>
<trkpt lat="46.4795876294" lon="6.9638553075"><ele>1622.36</ele><time>2014-06-16T14:05:04Z</time></trkpt>
<trkpt lat="46.4801238198" lon="6.9640397094"><ele>1619.96</ele><time>2014-06-16T14:05:19Z</time></trkpt>
<trkpt lat="46.4802640490" lon="6.9640850555"><ele>1619.48</ele><time>2014-06-16T14:05:23Z</time></trkpt>
<trkpt lat="46.4803535677" lon="6.9640314113"><ele>1618.52</ele><time>2014-06-16T14:05:26Z</time></trkpt>
<trkpt lat="46.4804507978" lon="6.9637589995"><ele>1616.59</ele><time>2014-06-16T14:05:31Z</time></trkpt>
<trkpt lat="46.4804257359" lon="6.9634959754"><ele>1617.07</ele><time>2014-06-16T14:05:39Z</time></trkpt>
<trkpt lat="46.4804339502" lon="6.9633197878"><ele>1618.04</ele><time>2014-06-16T14:05:46Z</time></trkpt>
<trkpt lat="46.4804279152" lon="6.9632839970"><ele>1618.52</ele><time>2014-06-16T14:05:48Z</time></trkpt>
<trkpt lat="46.4803034440" lon="6.9630732760"><ele>1621.4</ele><time>2014-06-16T14:05:59Z</time></trkpt>
<trkpt lat="46.4801998436" lon="6.9628015347"><ele>1623.32</ele><time>2014-06-16T14:06:12Z</time></trkpt>
<trkpt lat="46.4800395817" lon="6.9625795819"><ele>1626.21</ele><time>2014-06-16T14:06:25Z</time></trkpt>
<trkpt lat="46.4798752125" lon="6.9623856246"><ele>1630.05</ele><time>2014-06-16T14:06:38Z</time></trkpt>
<trkpt lat="46.4797203988" lon="6.9622210041"><ele>1634.38</ele><time>2014-06-16T14:06:49Z</time></trkpt>
<trkpt lat="46.4796200674" lon="6.9620968681"><ele>1637.26</ele><time>2014-06-16T14:06:57Z</time></trkpt>
<trkpt lat="46.4795702789" lon="6.9620175753"><ele>1638.7</ele><time>2014-06-16T14:07:02Z</time></trkpt>
<trkpt lat="46.4793814346" lon="6.9617955387"><ele>1640.15</ele><time>2014-06-16T14:07:14Z</time></trkpt>
<trkpt lat="46.4791133814" lon="6.9615134876"><ele>1644.47</ele><time>2014-06-16T14:07:28Z</time></trkpt>
<trkpt lat="46.4788877405" lon="6.9612647127"><ele>1645.43</ele><time>2014-06-16T14:07:40Z</time></trkpt>
<trkpt lat="46.4786361996" lon="6.9610124175"><ele>1647.36</ele><time>2014-06-16T14:07:53Z</time></trkpt>
<trkpt lat="46.4784365427" lon="6.9608262554"><ele>1648.32</ele><time>2014-06-16T14:08:03Z</time></trkpt>
<trkpt lat="46.4782245643" lon="6.9606578629"><ele>1647.84</ele><time>2014-06-16T14:08:13Z</time></trkpt>
<trkpt lat="46.4780080598" lon="6.9604318868"><ele>1647.84</ele><time>2014-06-16T14:08:24Z</time></trkpt>
<trkpt lat="46.4778047148" lon="6.9600927550"><ele>1647.84</ele><time>2014-06-16T14:08:36Z</time></trkpt>
<trkpt lat="46.4776456263" lon="6.9598548766"><ele>1649.76</ele><time>2014-06-16T14:08:46Z</time></trkpt>
<trkpt lat="46.4775116835" lon="6.9595796987"><ele>1650.24</ele><time>2014-06-16T14:08:57Z</time></trkpt>
<trkpt lat="46.4775776491" lon="6.9593885913"><ele>1648.32</ele><time>2014-06-16T14:09:03Z</time></trkpt>
<trkpt lat="46.4776491467" lon="6.9593039341"><ele>1647.36</ele><time>2014-06-16T14:09:06Z</time></trkpt>
<trkpt lat="46.4779958222" lon="6.9590303488"><ele>1641.59</ele><time>2014-06-16T14:09:17Z</time></trkpt>
<trkpt lat="46.4780137595" lon="6.9590094779"><ele>1640.63</ele><time>2014-06-16T14:09:23Z</time></trkpt>
<trkpt lat="46.4779941458" lon="6.9590012636"><ele>1640.15</ele><time>2014-06-16T14:09:44Z</time></trkpt>
<trkpt lat="46.4780156035" lon="6.9589774590"><ele>1638.7</ele><time>2014-06-16T14:10:03Z</time></trkpt>
<trkpt lat="46.4783371333" lon="6.9587490521"><ele>1634.86</ele><time>2014-06-16T14:10:11Z</time></trkpt>
<trkpt lat="46.4789247885" lon="6.9582099281"><ele>1628.13</ele><time>2014-06-16T14:10:21Z</time></trkpt>
<trkpt lat="46.4790796861" lon="6.9580266997"><ele>1627.17</ele><time>2014-06-16T14:10:24Z</time></trkpt>
<trkpt lat="46.4791592304" lon="6.9579013065"><ele>1626.69</ele><time>2014-06-16T14:10:26Z</time></trkpt>
<trkpt lat="46.4794779103" lon="6.9575553015"><ele>1626.21</ele><time>2014-06-16T14:10:35Z</time></trkpt>
<trkpt lat="46.4795126114" lon="6.9574858993"><ele>1626.21</ele><time>2014-06-16T14:10:37Z</time></trkpt>
<trkpt lat="46.4794742223" lon="6.9573092926"><ele>1624.77</ele><time>2014-06-16T14:10:43Z</time></trkpt>
<trkpt lat="46.4793741424" lon="6.9572952949"><ele>1623.8</ele><time>2014-06-16T14:10:46Z</time></trkpt>
<trkpt lat="46.4793008007" lon="6.9573007431"><ele>1622.84</ele><time>2014-06-16T14:10:48Z</time></trkpt>
<trkpt lat="46.4791262895" lon="6.9574070256"><ele>1620.44</ele><time>2014-06-16T14:10:52Z</time></trkpt>
<trkpt lat="46.4789168257" lon="6.9576031622"><ele>1617.07</ele><time>2014-06-16T14:10:56Z</time></trkpt>
<trkpt lat="46.4785139915" lon="6.9579019770"><ele>1610.83</ele><time>2014-06-16T14:11:02Z</time></trkpt>
<trkpt lat="46.4778553415" lon="6.9580808468"><ele>1599.77</ele><time>2014-06-16T14:11:11Z</time></trkpt>
<trkpt lat="46.4772551134" lon="6.9581208285"><ele>1589.2</ele><time>2014-06-16T14:11:20Z</time></trkpt>
<trkpt lat="46.4769856352" lon="6.9581053220"><ele>1584.39</ele><time>2014-06-16T14:11:24Z</time></trkpt>
<trkpt lat="46.4761459362" lon="6.9579910766"><ele>1569.97</ele><time>2014-06-16T14:11:35Z</time></trkpt>
<trkpt lat="46.4756024536" lon="6.9578400347"><ele>1561.32</ele><time>2014-06-16T14:11:43Z</time></trkpt>
<trkpt lat="46.4755464625" lon="6.9578402862"><ele>1560.36</ele><time>2014-06-16T14:11:44Z</time></trkpt>
<trkpt lat="46.4751198236" lon="6.9578081835"><ele>1553.15</ele><time>2014-06-16T14:11:52Z</time></trkpt>
<trkpt lat="46.4749290515" lon="6.9574141502"><ele>1547.86</ele><time>2014-06-16T14:11:58Z</time></trkpt>
<trkpt lat="46.4746940229" lon="6.9571661297"><ele>1543.53</ele><time>2014-06-16T14:12:02Z</time></trkpt>
<trkpt lat="46.4740556572" lon="6.9566529896"><ele>1531.52</ele><time>2014-06-16T14:12:12Z</time></trkpt>
<trkpt lat="46.4736753702" lon="6.9564659055"><ele>1525.27</ele><time>2014-06-16T14:12:19Z</time></trkpt>
<trkpt lat="46.4734485559" lon="6.9560779072"><ele>1519.5</ele><time>2014-06-16T14:12:25Z</time></trkpt>
<trkpt lat="46.4731349051" lon="6.9557800144"><ele>1513.73</ele><time>2014-06-16T14:12:30Z</time></trkpt>
<trkpt lat="46.4730188157" lon="6.9556416292"><ele>1510.85</ele><time>2014-06-16T14:12:32Z</time></trkpt>
<trkpt lat="46.4726214297" lon="6.9552962109"><ele>1501.24</ele><time>2014-06-16T14:12:40Z</time></trkpt>
<trkpt lat="46.4721551444" lon="6.9548045285"><ele>1492.58</ele><time>2014-06-16T14:12:52Z</time></trkpt>
<trkpt lat="46.4719117340" lon="6.9546040334"><ele>1488.74</ele><time>2014-06-16T14:12:57Z</time></trkpt>
<trkpt lat="46.4713467099" lon="6.9541519973"><ele>1477.2</ele><time>2014-06-16T14:13:08Z</time></trkpt>
<trkpt lat="46.4712939039" lon="6.9541120157"><ele>1476.24</ele><time>2014-06-16T14:13:09Z</time></trkpt>
<trkpt lat="46.4708147105" lon="6.9536971115"><ele>1466.63</ele><time>2014-06-16T14:13:18Z</time></trkpt>
<trkpt lat="46.4707622398" lon="6.9536510110"><ele>1465.67</ele><time>2014-06-16T14:13:19Z</time></trkpt>
<trkpt lat="46.4706572145" lon="6.9535707962"><ele>1463.74</ele><time>2014-06-16T14:13:21Z</time></trkpt>
<trkpt lat="46.4704367705" lon="6.9534648489"><ele>1459.9</ele><time>2014-06-16T14:13:25Z</time></trkpt>
<trkpt lat="46.4701988082" lon="6.9534288067"><ele>1454.61</ele><time>2014-06-16T14:13:30Z</time></trkpt>
<trkpt lat="46.4699232113" lon="6.9530549739"><ele>1449.32</ele><time>2014-06-16T14:13:37Z</time></trkpt>
<trkpt lat="46.4697332773" lon="6.9527844060"><ele>1445.96</ele><time>2014-06-16T14:13:41Z</time></trkpt>
<trkpt lat="46.4695446007" lon="6.9525681529"><ele>1442.11</ele><time>2014-06-16T14:13:45Z</time></trkpt>
<trkpt lat="46.4691561833" lon="6.9522355590"><ele>1434.91</ele><time>2014-06-16T14:13:52Z</time></trkpt>
<trkpt lat="46.4688951708" lon="6.9520950783"><ele>1430.58</ele><time>2014-06-16T14:13:56Z</time></trkpt>
<trkpt lat="46.4682157338" lon="6.9515743945"><ele>1418.08</ele><time>2014-06-16T14:14:07Z</time></trkpt>
<trkpt lat="46.4675057027" lon="6.9510980509"><ele>1405.1</ele><time>2014-06-16T14:14:18Z</time></trkpt>
<trkpt lat="46.4668217395" lon="6.9507016707"><ele>1394.05</ele><time>2014-06-16T14:14:29Z</time></trkpt>
<trkpt lat="46.4666573703" lon="6.9506239705"><ele>1391.65</ele><time>2014-06-16T14:14:32Z</time></trkpt>
<trkpt lat="46.4665484894" lon="6.9505629502"><ele>1390.2</ele><time>2014-06-16T14:14:34Z</time></trkpt>
<trkpt lat="46.4662974514" lon="6.9503240660"><ele>1386.84</ele><time>2014-06-16T14:14:39Z</time></trkpt>
<trkpt lat="46.4660501014" lon="6.9501468726"><ele>1384.92</ele><time>2014-06-16T14:14:44Z</time></trkpt>
<trkpt lat="46.4657900948" lon="6.9499586988"><ele>1382.99</ele><time>2014-06-16T14:14:49Z</time></trkpt>
<trkpt lat="46.4656257257" lon="6.9497297052"><ele>1381.55</ele><time>2014-06-16T14:14:53Z</time></trkpt>
<trkpt lat="46.4654936269" lon="6.9495758973"><ele>1380.59</ele><time>2014-06-16T14:14:56Z</time></trkpt>
<trkpt lat="46.4652702492" lon="6.9493412878"><ele>1378.19</ele><time>2014-06-16T14:15:02Z</time></trkpt>
<trkpt lat="46.4648851007" lon="6.9490656070"><ele>1371.94</ele><time>2014-06-16T14:15:09Z</time></trkpt>
<trkpt lat="46.4646312967" lon="6.9487885851"><ele>1364.73</ele><time>2014-06-16T14:15:17Z</time></trkpt>
<trkpt lat="46.4643092640" lon="6.9482585136"><ele>1360.4</ele><time>2014-06-16T14:15:26Z</time></trkpt>
<trkpt lat="46.4641793445" lon="6.9480650593"><ele>1358.48</ele><time>2014-06-16T14:15:29Z</time></trkpt>
<trkpt lat="46.4637987223" lon="6.9474681001"><ele>1344.06</ele><time>2014-06-16T14:15:39Z</time></trkpt>
<trkpt lat="46.4633226302" lon="6.9470132142"><ele>1328.68</ele><time>2014-06-16T14:15:48Z</time></trkpt>
<trkpt lat="46.4632092230" lon="6.9468952809"><ele>1324.83</ele><time>2014-06-16T14:15:51Z</time></trkpt>
<trkpt lat="46.4630769566" lon="6.9466753397"><ele>1320.51</ele><time>2014-06-16T14:15:55Z</time></trkpt>
<trkpt lat="46.4629731048" lon="6.9463981502"><ele>1316.66</ele><time>2014-06-16T14:15:58Z</time></trkpt>
<trkpt lat="46.4629721828" lon="6.9458264206"><ele>1308.01</ele><time>2014-06-16T14:16:04Z</time></trkpt>
<trkpt lat="46.4631274156" lon="6.9456596207"><ele>1303.2</ele><time>2014-06-16T14:16:07Z</time></trkpt>
<trkpt lat="46.4633940440" lon="6.9455171283"><ele>1295.51</ele><time>2014-06-16T14:16:11Z</time></trkpt>
<trkpt lat="46.4635751769" lon="6.9452620670"><ele>1291.67</ele><time>2014-06-16T14:16:16Z</time></trkpt>
<trkpt lat="46.4637361933" lon="6.9452319760"><ele>1290.71</ele><time>2014-06-16T14:16:22Z</time></trkpt>
<trkpt lat="46.4637178369" lon="6.9451698661"><ele>1289.75</ele><time>2014-06-16T14:16:27Z</time></trkpt>
<trkpt lat="46.4637009054" lon="6.9451534376"><ele>1288.78</ele><time>2014-06-16T14:16:33Z</time></trkpt>
</trkseg></trk></gpx>